Time;durP1;ratioP1;P1;durP2;ratioP2;P2;SDS_P1;SDS_P2;PMS_P1;PMS_P2;Temp;Humidity;BMP_temperature;BMP_pressure;BME280_temperature;BME280_humidity;BME280_pressure;Samples;Min_cycle;Max_cycle;Signal;HPM_P1;HPM_P2
2022/12/16 00:01:31;;;;;;;28.92;15.77;;;;;;;-0.11;100.00;95142.66;4999364;28;20068;-70
2022/12/16 00:03:57;;;;;;;29.58;15.20;;;;;;;-0.20;100.00;95150.03;5007143;28;20050;-70
2022/12/16 00:06:28;;;;;;;26.08;14.50;;;;;;;-0.25;100.00;95161.03;4999724;28;20049;-70
2022/12/16 00:08:53;;;;;;;28.42;15.07;;;;;;;-0.29;100.00;95166.31;5004306;28;20042;-71
2022/12/16 00:11:19;;;;;;;27.08;14.82;;;;;;;-0.25;100.00;95164.50;5018028;28;20034;-73
2022/12/16 00:13:45;;;;;;;31.13;15.85;;;;;;;-0.32;100.00;95155.41;5012400;28;20038;-71
2022/12/16 00:16:13;;;;;;;27.55;15.32;;;;;;;-0.32;100.00;95158.88;4998047;28;20439;-72
2022/12/16 00:18:39;;;;;;;28.02;15.27;;;;;;;-0.30;100.00;95159.34;5002058;28;20056;-73
2022/12/16 00:21:05;;;;;;;28.05;15.32;;;;;;;-0.24;100.00;95163.38;5007204;28;20046;-70
2022/12/16 00:23:31;;;;;;;30.10;15.40;;;;;;;-0.36;100.00;95165.25;5020617;28;20038;-71
2022/12/16 00:25:57;;;;;;;28.85;15.57;;;;;;;-0.30;100.00;95162.03;5023206;28;20050;-70
2022/12/16 00:28:22;;;;;;;29.98;16.00;;;;;;;-0.24;100.00;95154.53;5006274;28;20189;-72
2022/12/16 00:30:50;;;;;;;29.15;15.30;;;;;;;-0.21;100.00;95168.09;5009466;28;20042;-71
2022/12/16 00:33:16;;;;;;;26.20;14.48;;;;;;;-0.45;100.00;95162.66;5002605;28;20049;-71
2022/12/16 00:35:42;;;;;;;28.25;15.02;;;;;;;-0.72;100.00;95164.84;5004181;28;20042;-72
2022/12/16 00:38:08;;;;;;;32.45;16.75;;;;;;;-0.80;100.00;95168.41;5005757;28;20050;-71
2022/12/16 00:40:33;;;;;;;31.90;15.95;;;;;;;-0.81;100.00;95166.81;5012375;28;20117;-73
2022/12/16 00:42:59;;;;;;;31.55;16.13;;;;;;;-0.83;100.00;95155.63;5005433;28;20053;-73
2022/12/16 00:45:24;;;;;;;33.13;16.65;;;;;;;-0.92;100.00;95158.38;4998445;28;20044;-70
2022/12/16 00:47:50;;;;;;;35.13;17.70;;;;;;;-1.02;100.00;95156.13;5001265;28;20044;-71
2022/12/16 00:50:16;;;;;;;34.53;17.50;;;;;;;-1.08;100.00;95150.16;4997399;28;20037;-73
2022/12/16 00:52:41;;;;;;;32.83;17.30;;;;;;;-1.08;100.00;95155.53;5000140;28;20042;-72
2022/12/16 00:55:07;;;;;;;33.42;17.00;;;;;;;-1.06;100.00;95161.38;5000999;28;20398;-74
2022/12/16 00:57:32;;;;;;;40.92;20.33;;;;;;;-1.02;100.00;95161.50;5006847;28;20474;-72
2022/12/16 00:59:58;;;;;;;36.05;18.88;;;;;;;-0.98;100.00;95162.41;5002054;28;20136;-69
2022/12/16 01:02:24;;;;;;;34.28;16.65;;;;;;;-0.88;100.00;95169.25;4997186;28;20053;-72
2022/12/16 01:04:49;;;;;;;33.75;17.27;;;;;;;-0.87;100.00;95176.22;5001959;28;20065;-72
2022/12/16 01:07:15;;;;;;;34.70;17.15;;;;;;;-0.77;100.00;95187.34;4993895;28;20127;-71
2022/12/16 01:09:40;;;;;;;34.95;17.05;;;;;;;-0.58;100.00;95186.06;5001265;28;20045;-73
2022/12/16 01:12:05;;;;;;;30.73;15.65;;;;;;;-0.69;100.00;95185.69;4996529;28;20125;-72
2022/12/16 01:14:31;;;;;;;29.83;15.60;;;;;;;-0.94;100.00;95178.66;5015918;28;20053;-74
2022/12/16 01:16:57;;;;;;;29.27;15.68;;;;;;;-1.09;100.00;95172.75;5002087;28;20137;-70
2022/12/16 01:19:22;;;;;;;31.90;16.63;;;;;;;-1.10;100.00;95173.88;4996416;28;20054;-73
2022/12/16 01:21:49;;;;;;;33.72;17.45;;;;;;;-1.08;100.00;95184.28;4998626;28;20089;-70
2022/12/16 01:24:15;;;;;;;32.85;16.30;;;;;;;-1.05;100.00;95192.47;4996712;28;20034;-71
2022/12/16 01:26:41;;;;;;;31.30;16.25;;;;;;;-0.93;100.00;95193.66;5001556;28;20033;-72
2022/12/16 01:29:06;;;;;;;30.35;16.73;;;;;;;-0.86;100.00;95200.09;4995953;28;20041;-69
2022/12/16 01:31:31;;;;;;;27.67;15.70;;;;;;;-0.74;100.00;95206.63;5000012;28;20034;-73
2022/12/16 01:33:57;;;;;;;29.58;15.43;;;;;;;-0.67;100.00;95210.34;5002525;28;20049;-72
2022/12/16 01:36:22;;;;;;;31.30;16.10;;;;;;;-0.65;100.00;95218.06;4991941;28;20042;-72
2022/12/16 01:38:48;;;;;;;31.73;15.43;;;;;;;-0.55;100.00;95214.22;5002318;28;20491;-71
2022/12/16 01:41:15;;;;;;;28.17;15.32;;;;;;;-0.51;100.00;95210.50;4997880;28;20120;-72
2022/12/16 01:43:41;;;;;;;28.48;14.90;;;;;;;-0.42;100.00;95221.97;4995375;28;20050;-69
2022/12/16 01:46:13;;;;;;;27.48;14.35;;;;;;;-0.34;100.00;95219.50;4996850;28;20038;-70
2022/12/16 01:48:53;;;;;;;26.02;14.50;;;;;;;-0.30;100.00;95215.06;5002083;28;20042;-71
2022/12/16 01:51:23;;;;;;;22.10;13.15;;;;;;;-0.24;100.00;95221.78;4993656;28;20097;-70
2022/12/16 01:53:51;;;;;;;22.90;13.30;;;;;;;-0.40;100.00;95219.75;5001031;28;20037;-71
2022/12/16 01:56:20;;;;;;;23.30;13.50;;;;;;;-0.73;100.00;95213.56;4989430;28;20041;-70
2022/12/16 01:58:46;;;;;;;;;;;;;;;-0.81;100.00;95210.63;5001854;28;20076;-70
2022/12/16 02:01:13;;;;;;;24.35;13.80;;;;;;;-0.87;100.00;95206.56;4993749;28;20020;-71
2022/12/16 02:03:41;;;;;;;24.42;14.18;;;;;;;-0.86;100.00;95207.38;5000753;28;20061;-69
2022/12/16 02:06:06;;;;;;;28.73;14.57;;;;;;;-0.74;100.00;95215.47;4993646;28;20050;-68
2022/12/16 02:08:32;;;;;;;32.65;16.27;;;;;;;-0.51;100.00;95233.94;5000163;28;20046;-70
2022/12/16 02:11:23;;;;;;;28.70;15.00;;;;;;;-0.31;100.00;95235.00;5015700;28;20042;-72
2022/12/16 02:14:20;;;;;;;23.95;13.30;;;;;;;-0.23;100.00;95234.91;4979172;28;20042;-70
2022/12/16 02:17:09;;;;;;;27.00;13.38;;;;;;;-0.22;100.00;95235.69;4985665;28;20484;-70
2022/12/16 02:19:59;;;;;;;37.58;15.88;;;;;;;-0.17;100.00;95246.25;5001981;28;20103;-69
2022/12/16 02:23:03;;;;;;;30.02;14.18;;;;;;;-0.07;100.00;95261.19;4975751;28;20047;-69
2022/12/16 02:26:06;;;;;;;38.22;16.05;;;;;;;-0.16;100.00;95252.41;4976761;28;20530;-71
2022/12/16 02:28:34;;;;;;;25.38;12.93;;;;;;;-0.28;100.00;95243.19;4999224;28;20098;-70
2022/12/16 02:31:27;;;;;;;20.77;12.75;;;;;;;-0.39;100.00;95245.50;5001610;28;20042;-69
2022/12/16 02:34:14;;;;;;;20.35;11.75;;;;;;;-0.46;100.00;95247.97;4981916;28;20050;-69
2022/12/16 02:37:01;;;;;;;25.23;13.63;;;;;;;-0.88;100.00;95245.31;4994506;28;20439;-71
2022/12/16 02:39:37;;;;;;;23.75;14.27;;;;;;;-1.14;100.00;95237.44;4995403;28;20034;-69
2022/12/16 02:42:11;;;;;;;25.77;14.05;;;;;;;-1.28;100.00;95235.00;4989337;28;20035;-68
2022/12/16 02:45:04;;;;;;;30.70;16.35;;;;;;;-1.37;100.00;95243.13;4981363;28;20042;-69
2022/12/16 02:47:30;;;;;;;40.38;20.58;;;;;;;-1.30;100.00;95244.50;4979870;28;20129;-71
2022/12/16 02:49:56;;;;;;;33.15;18.20;;;;;;;-1.25;100.00;95253.16;4981079;28;20564;-70
2022/12/16 02:52:24;;;;;;;32.22;17.13;;;;;;;-1.28;100.00;95251.13;4997987;28;20034;-69
2022/12/16 02:54:54;;;;;;;35.50;18.98;;;;;;;-1.31;100.00;95249.09;5003385;28;20054;-69
2022/12/16 02:57:40;;;;;;;33.70;17.65;;;;;;;-1.24;100.00;95256.63;4997944;28;20060;-70
2022/12/16 03:00:15;;;;;;;28.45;16.77;;;;;;;-1.18;100.00;95272.25;4997168;28;20049;-68
2022/12/16 03:03:05;;;;;;;30.67;16.95;;;;;;;-1.03;100.00;95270.88;5004507;28;20177;-69
2022/12/16 03:05:47;;;;;;;31.30;18.23;;;;;;;-0.92;100.00;95271.25;5002880;28;20034;-69
2022/12/16 03:08:24;;;;;;;31.17;17.45;;;;;;;-1.09;100.00;95279.47;4999417;28;20468;-69
2022/12/16 03:10:56;;;;;;;34.30;18.25;;;;;;;-1.13;100.00;95278.53;5001766;28;20046;-70
2022/12/16 03:13:22;;;;;;;33.38;17.98;;;;;;;-1.10;100.00;95273.28;4996301;28;20045;-71
2022/12/16 03:15:51;;;;;;;36.55;19.88;;;;;;;-1.25;100.00;95271.19;5001776;28;20045;-71
2022/12/16 03:18:17;;;;;;;;;;;;;;;-1.40;100.00;95270.63;4999706;28;20045;-71
2022/12/16 03:20:54;;;;;;;37.30;19.50;;;;;;;-1.43;100.00;95271.28;5007061;28;19913;-71
2022/12/16 03:23:26;;;;;;;40.20;20.33;;;;;;;-1.42;100.00;95283.59;4995719;28;20046;-71
2022/12/16 03:25:59;;;;;;;40.72;20.92;;;;;;;-1.32;100.00;95287.03;4981691;28;20038;-71
2022/12/16 03:28:34;;;;;;;40.92;21.02;;;;;;;-1.30;100.00;95285.56;4983077;28;20453;-72
2022/12/16 03:31:24;;;;;;;45.10;21.48;;;;;;;-1.31;100.00;95286.72;5006296;28;20045;-71
2022/12/16 03:34:02;;;;;;;46.30;23.17;;;;;;;-1.48;100.00;95284.09;5003407;28;20719;-72
2022/12/16 03:36:35;;;;;;;44.95;23.05;;;;;;;-1.47;100.00;95286.47;4993527;28;20093;-69
2022/12/16 03:39:05;;;;;;;52.72;24.02;;;;;;;-1.46;100.00;95289.94;5003331;28;20048;-71
2022/12/16 03:41:32;;;;;;;46.50;23.77;;;;;;;-1.47;100.00;95299.91;4994671;28;20058;-70
2022/12/16 03:43:57;;;;;;;50.88;24.65;;;;;;;-1.44;100.00;95298.44;5007263;28;20104;-71
2022/12/16 03:46:23;;;;;;;47.30;23.00;;;;;;;-1.37;100.00;95299.53;4997522;28;20054;-70
2022/12/16 03:48:50;;;;;;;44.47;22.90;;;;;;;-1.25;100.00;95309.56;4997088;28;20053;-70
2022/12/16 03:51:17;;;;;;;44.22;22.73;;;;;;;-1.13;100.00;95298.13;4996336;28;20133;-71
2022/12/16 03:53:42;;;;;;;43.85;22.27;;;;;;;-1.04;100.00;95303.47;5007070;28;20038;-69
2022/12/16 03:56:08;;;;;;;42.10;22.67;;;;;;;-0.83;100.00;95314.22;4998903;28;20061;-69
2022/12/16 03:58:34;;;;;;;41.20;21.98;;;;;;;-0.71;100.00;95316.97;5002831;28;20033;-70
2022/12/16 04:01:00;;;;;;;39.88;20.58;;;;;;;-0.77;100.00;95324.47;5003016;28;20053;-71
2022/12/16 04:03:26;;;;;;;40.88;21.80;;;;;;;-0.77;100.00;95327.16;4994495;28;20352;-71
2022/12/16 04:05:51;;;;;;;35.50;20.67;;;;;;;-0.75;100.00;95328.72;4995335;28;20049;-70
2022/12/16 04:08:17;;;;;;;39.75;21.75;;;;;;;-0.94;100.00;95337.22;4997734;28;20037;-71
2022/12/16 04:24:29;;;;;;;33.22;18.73;;;;;;;-0.58;100.00;95350.09;5001006;28;20038;-70
2022/12/16 04:30:17;;;;;;;38.92;20.25;;;;;;;-0.79;100.00;95345.50;5000282;28;20088;-69
2022/12/16 04:32:25;;;;;;;43.80;21.88;;;;;;;-1.20;100.00;95349.69;4996865;28;20120;-72
2022/12/16 04:34:51;;;;;;;39.03;21.10;;;;;;;-1.25;100.00;95349.09;5011068;28;20065;-71
